Time;durP1;ratioP1;P1;durP2;ratioP2;P2;SDS_P1;SDS_P2;PMS_P1;PMS_P2;Temp;Humidity;BMP_temperature;BMP_pressure;BME280_temperature;BME280_humidity;BME280_pressure;Samples;Min_cycle;Max_cycle;Signal;HPM_P1;HPM_P2
2021/12/17 00:02:36;;;;;;;12.83;10.20;;;;;;;3.14;100.00;98312.81;4932148;28;103946;-59
2021/12/17 00:05:13;;;;;;;11.53;10.00;;;;;;;3.19;100.00;98307.91;4932048;28;101964;-59
2021/12/17 00:07:40;;;;;;;11.90;10.47;;;;;;;3.16;100.00;98308.22;4932457;28;104968;-59
2021/12/17 00:10:12;;;;;;;12.20;10.57;;;;;;;3.18;100.00;98314.13;4932013;28;105210;-59
2021/12/17 00:12:40;;;;;;;12.63;10.60;;;;;;;3.24;100.00;98310.88;4932282;28;101959;-60
2021/12/17 00:15:30;;;;;;;12.37;10.60;;;;;;;3.12;100.00;98308.69;4935477;28;104199;-60
2021/12/17 00:18:03;;;;;;;12.00;10.00;;;;;;;3.10;100.00;98303.59;4951382;28;101859;-60
2021/12/17 00:20:52;;;;;;;11.87;10.37;;;;;;;3.07;100.00;98297.81;5005637;28;105215;-60
2021/12/17 00:48:51;;;;;;;11.40;9.40;;;;;;;2.61;100.00;98277.19;5009607;28;101851;-60
2021/12/17 00:54:17;;;;;;;11.67;9.93;;;;;;;2.79;100.00;98306.88;5008099;28;105714;-60
2021/12/17 00:56:45;;;;;;;12.60;10.77;;;;;;;2.75;100.00;98303.72;5005935;28;101838;-60
2021/12/17 00:59:36;;;;;;;14.10;10.47;;;;;;;2.72;100.00;98298.78;4988538;28;104859;-60
2021/12/17 01:02:07;;;;;;;13.97;11.03;;;;;;;2.61;100.00;98304.28;5003603;28;105338;-59
2021/12/17 01:04:36;;;;;;;11.47;10.27;;;;;;;2.61;100.00;98299.03;5008361;28;105201;-59
2021/12/17 01:07:04;;;;;;;13.23;10.27;;;;;;;2.55;100.00;98301.44;5004180;28;103806;-60
2021/12/17 01:09:31;;;;;;;13.60;10.90;;;;;;;2.64;100.00;98309.25;4988694;28;102302;-60
2021/12/17 01:11:59;;;;;;;14.10;10.97;;;;;;;2.75;100.00;98310.78;4998644;28;105214;-59
2021/12/17 01:14:46;;;;;;;13.13;10.27;;;;;;;2.85;100.00;98308.88;5009305;28;102612;-59
2021/12/17 01:17:26;;;;;;;12.23;9.67;;;;;;;2.86;100.00;98303.47;5008286;28;101760;-60
2021/12/17 01:20:29;;;;;;;12.13;10.47;;;;;;;2.92;100.00;98302.00;5008989;28;105360;-59
2021/12/17 01:23:19;;;;;;;11.87;9.87;;;;;;;2.89;100.00;98304.97;5004269;28;105340;-60
2021/12/17 01:35:29;;;;;;;12.17;9.70;;;;;;;2.97;100.00;98269.03;5007833;28;105274;-59
2021/12/17 01:41:07;;;;;;;11.87;9.87;;;;;;;3.05;100.00;98284.81;5004189;28;101912;-60
2021/12/17 01:43:39;;;;;;;13.37;11.13;;;;;;;3.09;100.00;98280.06;4991201;28;105231;-59
2021/12/17 01:46:13;;;;;;;13.20;10.40;;;;;;;3.14;100.00;98288.31;5007471;28;104574;-60
2021/12/17 01:48:56;;;;;;;12.87;11.10;;;;;;;3.15;100.00;98287.31;5007663;28;101816;-60
2021/12/17 02:00:55;;;;;;;13.87;10.67;;;;;;;2.75;100.00;98258.25;5010845;28;105727;-60
2021/12/17 02:03:26;;;;;;;13.60;10.63;;;;;;;2.51;100.00;98248.41;5006751;28;102087;-60
2021/12/17 02:06:00;;;;;;;11.87;10.13;;;;;;;2.46;100.00;98249.88;4991194;28;105353;-59
2021/12/17 02:08:28;;;;;;;15.20;10.73;;;;;;;2.48;100.00;98251.38;5011993;28;102445;-60
2021/12/17 02:28:46;;;;;;;10.23;9.10;;;;;;;2.51;100.00;98219.53;4915555;28;105446;-60
2021/12/17 02:31:24;;;;;;;11.47;9.33;;;;;;;2.37;100.00;98214.03;4932088;28;105752;-60
2021/12/17 02:33:51;;;;;;;12.10;9.83;;;;;;;2.26;100.00;98201.16;4935064;28;101818;-59
2021/12/17 02:36:33;;;;;;;12.47;9.60;;;;;;;2.35;100.00;98189.75;4932474;28;105112;-60
2021/12/17 02:39:21;;;;;;;12.63;9.43;;;;;;;2.27;100.00;98192.31;4914942;28;105778;-60
2021/12/17 02:47:35;;;;;;;11.47;9.10;;;;;;;2.05;100.00;98221.69;4915406;28;101919;-60
2021/12/17 02:50:02;;;;;;;11.10;9.47;;;;;;;1.88;100.00;98217.28;4919816;28;104873;-60
2021/12/17 02:52:32;;;;;;;11.83;8.77;;;;;;;1.90;100.00;98210.91;4948564;28;102515;-59
2021/12/17 02:55:03;;;;;;;11.00;8.70;;;;;;;1.86;100.00;98206.13;4996447;28;101871;-60
2021/12/17 02:58:13;;;;;;;11.30;8.77;;;;;;;1.91;100.00;98196.81;5011238;28;104920;-60
2021/12/17 03:00:42;;;;;;;10.13;8.23;;;;;;;1.75;100.00;98204.56;5009996;28;105416;-60
2021/12/17 03:03:11;;;;;;;11.47;10.07;;;;;;;1.65;100.00;98197.75;5014861;28;101996;-60
2021/12/17 03:05:41;;;;;;;11.67;9.97;;;;;;;1.66;100.00;98202.03;5009608;28;105373;-60
2021/12/17 03:08:13;;;;;;;13.33;9.47;;;;;;;1.69;100.00;98201.75;5009461;28;101865;-60
2021/12/17 03:10:42;;;;;;;11.30;9.90;;;;;;;1.57;100.00;98208.16;5007397;28;104848;-60
2021/12/17 03:13:10;;;;;;;12.17;9.67;;;;;;;1.56;100.00;98201.28;4990650;28;105117;-60
2021/12/17 03:15:49;;;;;;;11.17;9.33;;;;;;;1.35;100.00;98200.75;5006741;28;102239;-60
2021/12/17 03:18:49;;;;;;;10.57;9.13;;;;;;;1.38;100.00;98205.69;5011187;28;105046;-60
2021/12/17 03:24:22;;;;;;;13.40;9.50;;;;;;;1.39;100.00;98210.81;4992633;28;101786;-59
2021/12/17 03:26:51;;;;;;;11.60;9.60;;;;;;;1.23;100.00;98210.63;5013840;28;105519;-60
2021/12/17 03:29:20;;;;;;;12.10;9.80;;;;;;;1.18;100.00;98217.28;5010403;28;101844;-59
2021/12/17 03:31:51;;;;;;;11.13;9.43;;;;;;;1.30;100.00;98221.34;5010545;28;104494;-60
2021/12/17 03:37:40;;;;;;;11.80;9.50;;;;;;;1.20;100.00;98226.66;4993350;28;101757;-60
2021/12/17 03:40:07;;;;;;;11.77;9.57;;;;;;;1.31;100.00;98231.69;5007312;28;105577;-60
2021/12/17 03:42:36;;;;;;;11.73;9.53;;;;;;;1.29;100.00;98223.16;4991320;28;105335;-60
2021/12/17 03:45:21;;;;;;;12.67;9.60;;;;;;;1.16;100.00;98229.72;5010497;28;102298;-60
2021/12/17 03:47:59;;;;;;;10.63;8.67;;;;;;;1.16;100.00;98235.75;4930126;28;105245;-60
2021/12/17 03:50:27;;;;;;;11.20;9.00;;;;;;;1.10;100.00;98246.81;4936599;28;106049;-60
2021/12/17 03:52:54;;;;;;;10.37;8.43;;;;;;;1.06;100.00;98247.28;4933355;28;103710;-60
2021/12/17 03:55:57;;;;;;;9.37;8.17;;;;;;;0.93;100.00;98250.22;4929996;28;104638;-60
2021/12/17 03:58:55;;;;;;;11.17;8.87;;;;;;;1.06;100.00;98245.50;4901079;28;101977;-60
2021/12/17 04:01:24;;;;;;;11.33;9.33;;;;;;;1.03;100.00;98250.19;4895283;28;103593;-60
2021/12/17 04:03:51;;;;;;;12.67;9.80;;;;;;;1.07;100.00;98247.13;4894686;28;105848;-60
2021/12/17 04:06:28;;;;;;;12.90;10.00;;;;;;;1.19;100.00;98245.13;4895023;28;101900;-60
2021/12/17 04:09:19;;;;;;;14.00;10.23;;;;;;;1.12;100.00;98233.59;4912319;28;102981;-60
2021/12/17 04:11:53;;;;;;;12.70;10.80;;;;;;;1.21;100.00;98240.59;4912179;28;105168;-60
2021/12/17 04:14:51;;;;;;;12.43;10.00;;;;;;;1.31;100.00;98241.34;4916870;28;101827;-60
2021/12/17 04:17:25;;;;;;;13.00;10.80;;;;;;;1.37;100.00;98248.63;4944605;28;105370;-60
2021/12/17 04:19:53;;;;;;;12.60;10.50;;;;;;;1.57;100.00;98256.19;4927757;28;101910;-60
2021/12/17 04:22:22;;;;;;;16.87;11.13;;;;;;;1.57;100.00;98239.63;4929081;28;104907;-60
2021/12/17 04:25:16;;;;;;;14.87;11.87;;;;;;;1.43;100.00;98211.31;4948693;28;105312;-60
2021/12/17 04:28:05;;;;;;;15.53;11.10;;;;;;;1.60;100.00;98229.66;5008499;28;102000;-60
2021/12/17 04:30:35;;;;;;;15.27;12.53;;;;;;;1.71;100.00;98239.13;5005006;28;104855;-60
2021/12/17 04:33:02;;;;;;;14.93;11.63;;;;;;;1.66;100.00;98228.25;5000315;28;105481;-60
2021/12/17 04:36:02;;;;;;;15.60;11.70;;;;;;;1.80;100.00;98230.34;5008912;28;101867;-60
2021/12/17 04:38:29;;;;;;;16.90;13.30;;;;;;;1.50;100.00;98215.81;5011445;28;105496;-60
2021/12/17 04:41:10;;;;;;;19.13;13.53;;;;;;;1.51;100.00;98214.00;5008385;28;101912;-59
2021/12/17 04:43:45;;;;;;;19.30;12.83;;;;;;;1.57;100.00;98218.66;5005252;28;105629;-59
2021/12/17 04:46:24;;;;;;;17.50;11.73;;;;;;;1.39;100.00;98220.44;5004106;28;105513;-60
2021/12/17 04:57:56;;;;;;;14.57;11.20;;;;;;;1.47;100.00;98212.66;5007622;28;101976;-59
2021/12/17 05:00:26;;;;;;;15.30;11.70;;;;;;;1.33;100.00;98213.19;5004984;28;103570;-60
2021/12/17 05:03:21;;;;;;;17.93;13.07;;;;;;;1.22;100.00;98208.97;5005209;28;104059;-60
2021/12/17 05:05:55;;;;;;;16.67;12.87;;;;;;;1.10;100.00;98209.34;5008723;28;104565;-60
2021/12/17 05:08:28;;;;;;;17.17;12.60;;;;;;;1.19;100.00;98214.50;5009081;28;105241;-59
2021/12/17 05:19:44;;;;;;;16.90;12.47;;;;;;;0.96;100.00;98196.72;4911247;28;102141;-60
2021/12/17 05:22:13;;;;;;;15.03;11.33;;;;;;;0.83;100.00;98191.03;4912180;28;104648;-60
2021/12/17 05:24:42;;;;;;;14.33;11.27;;;;;;;0.65;100.00;98192.75;4966111;28;104390;-60
2021/12/17 05:27:09;;;;;;;15.17;11.57;;;;;;;0.61;100.00;98194.03;5007941;28;104942;-60
2021/12/17 05:29:46;;;;;;;15.67;12.70;;;;;;;0.56;100.00;98206.72;5004005;28;105189;-60
2021/12/17 05:32:14;;;;;;;18.13;12.50;;;;;;;0.61;100.00;98201.88;4987966;28;102103;-60
2021/12/17 05:34:51;;;;;;;15.20;11.20;;;;;;;0.64;100.00;98191.09;4988189;28;104757;-60
2021/12/17 05:37:18;;;;;;;15.43;12.30;;;;;;;0.66;100.00;98194.44;4991753;28;105387;-60
2021/12/17 05:39:45;;;;;;;16.07;12.57;;;;;;;0.71;100.00;98192.19;5007810;28;101886;-60
2021/12/17 05:42:14;;;;;;;19.00;13.47;;;;;;;0.58;100.00;98196.94;5007933;28;104962;-60
2021/12/17 05:45:10;;;;;;;19.77;15.57;;;;;;;0.63;100.00;98190.31;5007554;28;104925;-60
2021/12/17 05:47:39;;;;;;;17.43;13.77;;;;;;;0.56;100.00;98191.03;5011369;28;101824;-60
2021/12/17 05:50:09;;;;;;;18.50;13.17;;;;;;;0.55;100.00;98203.28;5007256;28;104939;-60
2021/12/17 05:52:36;;;;;;;15.33;11.97;;;;;;;0.50;100.00;98204.69;5007779;28;101920;-60
2021/12/17 05:55:09;;;;;;;15.57;11.97;;;;;;;0.46;100.00;98198.91;5008008;28;104784;-60
2021/12/17 05:58:04;;;;;;;15.40;11.30;;;;;;;0.37;100.00;98202.38;5006994;28;105415;-60
2021/12/17 06:00:32;;;;;;;18.37;12.40;;;;;;;0.26;100.00;98201.72;5007505;28;101964;-60
2021/12/17 06:03:17;;;;;;;14.63;11.40;;;;;;;0.12;100.00;98216.09;5004127;28;104771;-60
2021/12/17 06:06:10;;;;;;;13.10;11.70;;;;;;;0.23;100.00;98226.38;4987292;28;104679;-60
2021/12/17 06:08:37;;;;;;;14.13;12.50;;;;;;;0.25;100.00;98226.25;4987470;28;102122;-60
2021/12/17 06:11:05;;;;;;;15.60;12.33;;;;;;;0.17;100.00;98220.91;4990066;28;104953;-60
2021/12/17 06:13:32;;;;;;;14.50;11.70;;;;;;;0.11;100.00;98229.31;5021025;28;101927;-60
2021/12/17 06:16:11;;;;;;;13.57;11.57;;;;;;;0.19;100.00;98226.81;4987697;28;104917;-60
2021/12/17 06:18:39;;;;;;;12.03;10.57;;;;;;;0.28;100.00;98228.59;5000717;28;105037;-60
2021/12/17 06:21:07;;;;;;;12.43;10.47;;;;;;;0.32;100.00;98229.94;5000493;28;103268;-59
2021/12/17 06:23:36;;;;;;;12.07;10.70;;;;;;;0.14;100.00;98235.09;5007166;28;105528;-59
2021/12/17 06:26:20;;;;;;;11.43;10.23;;;;;;;0.09;100.00;98233.84;5003119;28;105244;-60
2021/12/17 06:28:56;;;;;;;10.63;9.17;;;;;;;0.01;100.00;98237.16;4987181;28;101734;-60
2021/12/17 06:31:24;;;;;;;10.63;9.23;;;;;;;0.02;100.00;98244.03;4989718;28;104765;-60
2021/12/17 06:33:52;;;;;;;10.03;9.03;;;;;;;0.13;100.00;98251.72;5011163;28;105251;-60
2021/12/17 06:39:46;;;;;;;12.90;11.03;;;;;;;0.22;100.00;98255.31;5007630;28;105274;-60
2021/12/17 06:42:14;;;;;;;12.43;10.57;;;;;;;0.20;100.00;98254.63;5007338;28;103561;-60
2021/12/17 06:45:16;;;;;;;9.97;8.97;;;;;;;0.15;100.00;98251.59;5027476;28;105448;-60
2021/12/17 06:47:52;;;;;;;9.53;8.53;;;;;;;0.05;100.00;98256.00;5010959;28;105355;-60
2021/12/17 07:00:11;;;;;;;11.27;9.77;;;;;;;-0.01;100.00;98252.19;5001351;28;101905;-60
2021/12/17 07:06:10;;;;;;;10.70;9.60;;;;;;;-0.20;100.00;98251.38;5001419;28;101851;-60
2021/12/17 07:17:08;;;;;;;11.70;9.60;;;;;;;0.00;100.00;98247.78;4990215;28;105041;-60
2021/12/17 07:17:36;;;;;;;10.00;8.50;;;;;;;-0.09;100.00;98249.41;5010237;28;105148;-60
2021/12/17 07:29:09;;;;;;;12.00;9.57;;;;;;;0.04;100.00;98247.38;5010892;28;101969;-59
2021/12/17 07:34:51;;;;;;;19.87;13.10;;;;;;;0.05;100.00;98230.69;5005781;28;105712;-60
2021/12/17 07:40:17;;;;;;;28.37;16.93;;;;;;;0.07;100.00;98230.56;4929243;28;105284;-60
2021/12/17 07:42:49;;;;;;;29.50;17.53;;;;;;;0.14;100.00;98232.47;4929536;28;104058;-60
2021/12/17 07:45:36;;;;;;;31.07;19.07;;;;;;;0.19;100.00;98237.28;4929943;28;101932;-60
2021/12/17 07:48:08;;;;;;;36.47;19.70;;;;;;;0.20;100.00;98236.31;4936634;28;105012;-60
2021/12/17 07:50:47;;;;;;;26.67;15.93;;;;;;;0.28;100.00;98237.25;4965356;28;102094;-60
2021/12/17 07:53:22;;;;;;;17.13;11.90;;;;;;;0.45;100.00;98230.47;4932750;28;105188;-60
2021/12/17 07:56:22;;;;;;;11.60;9.93;;;;;;;0.53;100.00;98231.41;4932327;28;104973;-60
2021/12/17 07:58:58;;;;;;;14.80;11.77;;;;;;;0.68;100.00;98237.81;4933651;28;101847;-60
2021/12/17 08:01:27;;;;;;;15.23;12.73;;;;;;;0.71;100.00;98234.09;4932826;28;105591;-60
2021/12/17 08:03:54;;;;;;;17.40;13.40;;;;;;;0.77;100.00;98246.59;4947979;28;104822;-60
2021/12/17 08:06:32;;;;;;;20.57;15.33;;;;;;;0.86;100.00;98243.09;4965183;28;102053;-60
2021/12/17 08:09:21;;;;;;;20.10;14.07;;;;;;;1.02;100.00;98249.38;4932877;28;104302;-60
2021/12/17 08:11:55;;;;;;;17.13;12.30;;;;;;;1.03;100.00;98255.41;4976375;28;105447;-60
2021/12/17 08:14:27;;;;;;;12.00;10.70;;;;;;;0.83;100.00;98253.88;4989434;28;104821;-60
2021/12/17 08:17:02;;;;;;;16.07;10.67;;;;;;;0.96;100.00;98249.97;4988825;28;104790;-60
2021/12/17 08:25:47;;;;;;;12.07;10.80;;;;;;;1.11;100.00;98243.22;5008444;28;105083;-59
2021/12/17 08:29:24;;;;;;;34.27;14.70;;;;;;;1.15;100.00;98247.22;5008699;28;101831;-59
2021/12/17 08:31:53;;;;;;;16.63;12.33;;;;;;;1.28;100.00;98252.13;5008307;28;104990;-71
2021/12/17 08:34:28;;;;;;;12.80;11.43;;;;;;;1.40;100.00;98258.78;5004760;28;104353;-59
2021/12/17 08:36:57;;;;;;;14.00;11.57;;;;;;;1.38;100.00;98251.06;5006796;28;103390;-57
2021/12/17 08:39:25;;;;;;;13.00;10.67;;;;;;;1.33;100.00;98257.75;4988429;28;105624;-59
2021/12/17 08:41:54;;;;;;;13.30;10.80;;;;;;;1.32;100.00;98251.66;4989006;28;101932;-59
2021/12/17 08:44:29;;;;;;;13.13;10.20;;;;;;;1.23;100.00;98244.72;4988846;28;104797;-59
2021/12/17 08:47:32;;;;;;;12.80;10.70;;;;;;;1.28;100.00;98259.97;5007272;28;103976;-59
2021/12/17 08:50:06;;;;;;;11.70;10.50;;;;;;;1.28;100.00;98250.34;5008000;28;101975;-59
2021/12/17 08:52:33;;;;;;;12.67;10.93;;;;;;;1.51;100.00;98248.09;4988671;28;105509;-59
2021/12/17 08:55:25;;;;;;;11.50;10.30;;;;;;;1.58;100.00;98249.16;4988176;28;104452;-59
2021/12/17 08:58:14;;;;;;;12.83;11.50;;;;;;;1.82;100.00;98252.84;4988787;28;101948;-60
2021/12/17 09:00:44;;;;;;;11.57;9.77;;;;;;;1.92;100.00;98248.31;4991479;28;105392;-59
2021/12/17 09:03:14;;;;;;;10.50;9.40;;;;;;;2.16;100.00;98245.06;5009327;28;102401;-58
2021/12/17 09:06:10;;;;;;;13.03;10.20;;;;;;;2.38;100.00;98253.25;5005517;28;105318;-59
2021/12/17 09:08:44;;;;;;;10.37;9.37;;;;;;;2.61;100.00;98253.56;4987868;28;105137;-60
2021/12/17 09:11:12;;;;;;;13.23;11.17;;;;;;;2.69;100.00;98251.00;5001577;28;103501;-59
2021/12/17 09:13:52;;;;;;;13.53;11.40;;;;;;;2.87;100.00;98247.31;5004844;28;104914;-59
2021/12/17 09:16:22;;;;;;;13.73;12.33;;;;;;;2.92;100.00;98257.34;4988017;28;105060;-59
2021/12/17 09:18:53;;;;;;;13.73;11.63;;;;;;;3.08;100.00;98252.97;4988290;28;101921;-59
2021/12/17 09:21:44;;;;;;;14.27;10.93;;;;;;;3.32;100.00;98254.84;5008074;28;104840;-59
2021/12/17 09:24:38;;;;;;;13.77;12.30;;;;;;;3.49;100.00;98251.31;5011207;28;105086;-59
2021/12/17 09:27:13;;;;;;;13.43;12.00;;;;;;;3.68;100.00;98248.38;5006450;28;103049;-59
2021/12/17 09:29:58;;;;;;;11.57;10.37;;;;;;;3.89;100.00;98248.72;5005206;28;102393;-60
2021/12/17 09:32:25;;;;;;;11.07;10.00;;;;;;;4.00;100.00;98243.13;5007168;28;101961;-59
2021/12/17 09:35:06;;;;;;;11.67;10.47;;;;;;;4.25;100.00;98242.16;5008717;28;104005;-59
2021/12/17 09:37:35;;;;;;;11.03;9.93;;;;;;;4.31;100.00;98246.75;5008755;28;102876;-59
2021/12/17 09:40:04;;;;;;;11.00;9.90;;;;;;;4.53;100.00;98243.44;5005423;28;101872;-59
2021/12/17 09:42:32;;;;;;;10.77;9.47;;;;;;;4.60;100.00;98245.25;4988819;28;105358;-59
2021/12/17 09:45:10;;;;;;;10.33;9.27;;;;;;;4.66;100.00;98241.94;4988244;28;104045;-59
2021/12/17 09:47:37;;;;;;;9.93;8.87;;;;;;;4.74;100.00;98241.88;4992127;28;101755;-58
2021/12/17 09:50:09;;;;;;;10.00;9.00;;;;;;;4.56;100.00;98241.28;4990407;28;105029;-58
2021/12/17 09:52:38;;;;;;;9.67;8.63;;;;;;;4.64;100.00;98237.81;4988774;28;101829;-59
2021/12/17 09:55:07;;;;;;;9.63;8.63;;;;;;;4.57;100.00;98227.13;4988756;28;105606;-59
2021/12/17 09:57:36;;;;;;;10.00;9.00;;;;;;;4.54;100.00;98224.81;4988474;28;105441;-59
2021/12/17 10:00:06;;;;;;;10.13;9.13;;;;;;;4.73;100.00;98216.53;5008293;28;102383;-59
2021/12/17 10:02:39;;;;;;;10.87;9.20;;;;;;;4.91;100.00;98219.75;5006442;28;102158;-59
2021/12/17 10:05:08;;;;;;;11.63;9.60;;;;;;;5.20;100.00;98216.50;5009096;28;102643;-59
2021/12/17 10:07:36;;;;;;;9.13;8.23;;;;;;;5.21;100.00;98207.59;5011795;28;102028;-59
2021/12/17 10:10:10;;;;;;;9.77;8.83;;;;;;;5.31;100.00;98201.13;5004388;28;105692;-60
2021/12/17 10:12:39;;;;;;;9.07;8.17;;;;;;;5.33;100.00;98193.84;4988245;28;101815;-58
2021/12/17 10:15:20;;;;;;;9.07;8.13;;;;;;;5.19;100.00;98188.50;4995042;28;102381;-59
2021/12/17 10:17:57;;;;;;;8.33;7.43;;;;;;;5.30;100.00;98190.75;5009053;28;105201;-57
2021/12/17 10:20:25;;;;;;;8.70;7.77;;;;;;;5.02;100.00;98189.56;5011788;28;101870;-58
2021/12/17 10:22:58;;;;;;;8.30;7.50;;;;;;;5.25;100.00;98182.53;5011804;28;105497;-59
2021/12/17 10:25:30;;;;;;;8.00;7.30;;;;;;;5.60;100.00;98189.88;5011098;28;105236;-60
2021/12/17 10:28:15;;;;;;;8.47;7.67;;;;;;;5.41;100.00;98187.72;5011579;28;101833;-60
2021/12/17 10:30:47;;;;;;;10.57;8.37;;;;;;;5.47;100.00;98173.81;5014920;28;104027;-60
2021/12/17 10:33:20;;;;;;;8.87;7.77;;;;;;;5.43;100.00;98185.72;5011648;28;102019;-60
2021/12/17 10:36:03;;;;;;;9.13;8.23;;;;;;;5.79;100.00;98187.59;5008371;28;105212;-60
2021/12/17 10:38:30;;;;;;;9.17;8.03;;;;;;;6.03;100.00;98174.25;4990926;28;105237;-59
2021/12/17 10:41:04;;;;;;;10.77;7.20;;;;;;;5.83;100.00;98188.13;4992876;28;101652;-60
2021/12/17 10:43:35;;;;;;;9.10;8.20;;;;;;;5.93;100.00;98186.88;5004626;28;102632;-60
2021/12/17 10:46:29;;;;;;;8.70;7.80;;;;;;;5.79;100.00;98186.78;5007656;28;105283;-60
2021/12/17 10:49:02;;;;;;;14.80;8.03;;;;;;;6.02;100.00;98188.44;4991475;28;101800;-59
2021/12/17 10:51:45;;;;;;;8.87;7.97;;;;;;;5.75;100.00;98194.25;4991467;28;105419;-60
2021/12/17 10:54:28;;;;;;;9.60;7.63;;;;;;;5.72;100.00;98186.66;4994385;28;105680;-60
2021/12/17 10:56:57;;;;;;;8.67;7.53;;;;;;;5.88;100.00;98188.38;4991464;28;104000;-60
2021/12/17 10:59:27;;;;;;;8.63;7.77;;;;;;;6.20;100.00;98196.88;4990757;28;105776;-59
2021/12/17 11:02:00;;;;;;;8.47;7.67;;;;;;;6.45;100.00;98190.34;4991302;28;101933;-58
2021/12/17 11:04:51;;;;;;;9.20;8.30;;;;;;;6.55;100.00;98172.38;5011398;28;103448;-58
2021/12/17 11:07:19;;;;;;;8.57;7.67;;;;;;;6.37;100.00;98171.94;5010710;28;105185;-62
2021/12/17 11:09:49;;;;;;;7.87;7.07;;;;;;;6.55;100.00;98166.31;5011384;28;102118;-56
2021/12/17 11:12:29;;;;;;;9.83;7.83;;;;;;;6.66;100.00;98165.84;5011124;28;104808;-57
2021/12/17 11:15:18;;;;;;;8.80;7.90;;;;;;;6.61;100.00;98158.44;5012072;28;102702;-56
2021/12/17 11:17:49;;;;;;;8.33;7.53;;;;;;;6.70;100.00;98156.56;5011076;28;101847;-57
2021/12/17 11:20:19;;;;;;;8.30;7.50;;;;;;;6.78;100.00;98159.09;4992151;28;102747;-57
2021/12/17 11:22:48;;;;;;;9.10;8.10;;;;;;;6.74;100.00;98158.63;4995210;28;101888;-56
2021/12/17 11:25:43;;;;;;;9.00;8.10;;;;;;;7.07;100.00;98159.03;5012126;28;102390;-57
2021/12/17 11:28:13;;;;;;;8.87;7.97;;;;;;;6.90;100.00;98145.22;5010770;28;102664;-57
2021/12/17 11:30:42;;;;;;;9.13;8.23;;;;;;;6.80;100.00;98134.09;5011676;28;101911;-57
2021/12/17 11:33:09;;;;;;;9.20;8.30;;;;;;;7.25;100.00;98133.00;5012159;28;101926;-56
2021/12/17 11:36:01;;;;;;;8.83;7.93;;;;;;;7.26;100.00;98132.00;5010126;28;103769;-57
2021/12/17 11:38:37;;;;;;;8.40;7.60;;;;;;;7.27;100.00;98138.94;5011939;28;101819;-56
2021/12/17 11:41:13;;;;;;;8.87;7.73;;;;;;;7.29;100.00;98139.56;5014780;28;102935;-57
2021/12/17 11:43:58;;;;;;;8.30;7.50;;;;;;;7.65;100.00;98127.94;5012129;28;101697;-58
2021/12/17 11:46:27;;;;;;;8.53;7.67;;;;;;;7.83;100.00;98132.75;5007617;28;104448;-58
2021/12/17 11:48:57;;;;;;;9.23;8.00;;;;;;;7.99;100.00;98129.84;5010020;28;104318;-58
2021/12/17 11:51:27;;;;;;;10.07;8.27;;;;;;;7.93;100.00;98130.59;5006847;28;102033;-57
2021/12/17 11:54:03;;;;;;;8.47;7.57;;;;;;;8.13;100.00;98121.00;5003692;28;105830;-58
2021/12/17 11:56:48;;;;;;;8.03;7.23;;;;;;;8.11;100.00;98117.69;5009768;28;105934;-58
2021/12/17 11:59:54;;;;;;;7.60;6.90;;;;;;;8.09;100.00;98117.91;5010336;28;101921;-58
2021/12/17 12:02:22;;;;;;;9.03;8.13;;;;;;;7.95;100.00;98121.47;5006970;28;105134;-58
2021/12/17 12:04:57;;;;;;;9.37;8.47;;;;;;;8.15;100.00;98113.66;4992938;28;101944;-58
2021/12/17 12:07:34;;;;;;;8.77;7.97;;;;;;;8.10;100.00;98108.94;4990320;28;105475;-58
2021/12/17 12:10:08;;;;;;;8.27;7.47;;;;;;;8.31;100.00;98102.78;4989531;28;105151;-58
2021/12/17 12:12:58;;;;;;;8.63;7.77;;;;;;;8.18;100.00;98105.34;4991633;28;101695;-57
2021/12/17 12:15:38;;;;;;;8.53;7.73;;;;;;;7.84;100.00;98115.84;4990314;28;105270;-56
2021/12/17 12:18:22;;;;;;;9.87;8.23;;;;;;;7.95;100.00;98117.97;4989693;28;105060;-58
2021/12/17 12:20:58;;;;;;;10.10;8.37;;;;;;;8.06;100.00;98123.59;4998201;28;101860;-59
2021/12/17 12:23:37;;;;;;;8.17;7.40;;;;;;;8.40;100.00;98122.84;5006426;28;104201;-58
2021/12/17 12:26:41;;;;;;;8.67;7.77;;;;;;;8.00;100.00;98124.34;4992682;28;105430;-59
2021/12/17 12:29:15;;;;;;;9.77;8.00;;;;;;;8.05;100.00;98118.47;5006251;28;104758;-59
2021/12/17 12:32:03;;;;;;;8.63;7.83;;;;;;;8.24;100.00;98123.16;5008890;28;105022;-59
2021/12/17 12:35:07;;;;;;;9.00;7.93;;;;;;;8.40;100.00;98117.53;5006706;28;102027;-59
2021/12/17 12:37:33;;;;;;;9.07;7.73;;;;;;;8.41;100.00;98122.63;4989807;28;105654;-59
2021/12/17 12:40:22;;;;;;;8.70;7.90;;;;;;;8.02;100.00;98126.81;4987995;28;103672;-57
2021/12/17 12:42:55;;;;;;;8.93;8.03;;;;;;;8.14;100.00;98131.41;4997330;28;101809;-59
2021/12/17 12:45:50;;;;;;;8.40;7.60;;;;;;;7.52;100.00;98141.03;5008222;28;105084;-59
2021/12/17 12:48:31;;;;;;;7.97;7.13;;;;;;;7.41;100.00;98146.81;5008440;28;105352;-59
2021/12/17 12:51:16;;;;;;;8.17;7.37;;;;;;;7.45;100.00;98141.97;5013408;28;102006;-59
2021/12/17 12:53:49;;;;;;;7.67;6.97;;;;;;;7.54;100.00;98146.97;5005095;28;105760;-59
2021/12/17 12:56:20;;;;;;;8.40;7.60;;;;;;;7.51;100.00;98149.16;4989637;28;101966;-59
2021/12/17 12:58:55;;;;;;;8.83;7.63;;;;;;;7.37;100.00;98156.13;5005688;28;104819;-58
2021/12/17 13:01:22;;;;;;;8.30;7.57;;;;;;;7.60;100.00;98148.03;5009001;28;105668;-58
2021/12/17 13:03:52;;;;;;;9.13;8.00;;;;;;;7.69;100.00;98154.84;5010413;28;101900;-56
2021/12/17 13:06:25;;;;;;;9.40;8.50;;;;;;;7.72;100.00;98147.34;5009759;28;106018;-57
2021/12/17 13:08:54;;;;;;;9.27;8.03;;;;;;;7.60;100.00;98150.69;5009971;28;103020;-58
2021/12/17 13:11:21;;;;;;;9.83;8.83;;;;;;;7.17;100.00;98149.81;5009103;28;101872;-57
2021/12/17 13:13:53;;;;;;;9.33;8.47;;;;;;;7.20;100.00;98144.13;5025534;28;105585;-58
2021/12/17 13:16:55;;;;;;;9.83;8.50;;;;;;;7.20;100.00;98143.34;4990020;28;102066;-56
2021/12/17 13:22:27;;;;;;;8.93;8.03;;;;;;;7.48;100.00;98145.06;5008217;28;104977;-56
2021/12/17 13:24:59;;;;;;;10.93;9.13;;;;;;;7.57;100.00;98140.44;5005597;28;101837;-55
2021/12/17 13:28:10;;;;;;;9.10;8.20;;;;;;;7.71;100.00;98144.88;4997737;28;105692;-56
2021/12/17 13:30:36;;;;;;;9.40;8.50;;;;;;;7.85;100.00;98144.81;5008039;28;105125;-58
2021/12/17 13:33:03;;;;;;;8.93;8.07;;;;;;;7.66;100.00;98136.69;5005311;28;101883;-56
2021/12/17 13:35:36;;;;;;;8.50;7.70;;;;;;;7.54;100.00;98140.84;5007341;28;105279;-58
2021/12/17 13:38:03;;;;;;;9.10;8.20;;;;;;;7.27;100.00;98147.69;5007793;28;106502;-58
2021/12/17 13:40:36;;;;;;;11.07;9.07;;;;;;;7.17;100.00;98143.69;4993768;28;105205;-58
2021/12/17 13:43:06;;;;;;;10.33;8.60;;;;;;;7.15;100.00;98145.72;5021617;28;105869;-58
2021/12/17 13:45:35;;;;;;;10.37;8.70;;;;;;;6.71;100.00;98155.53;5007081;28;101890;-57
2021/12/17 13:48:02;;;;;;;9.83;8.50;;;;;;;6.19;100.00;98163.53;5010130;28;102485;-58
2021/12/17 13:50:33;;;;;;;9.83;8.83;;;;;;;5.87;100.00;98162.97;5002106;28;105533;-58
2021/12/17 13:53:04;;;;;;;9.57;8.47;;;;;;;5.80;100.00;98175.25;5006175;28;101691;-58
2021/12/17 13:55:46;;;;;;;9.87;8.87;;;;;;;5.77;100.00;98179.03;5013725;28;102629;-58
2021/12/17 13:58:25;;;;;;;9.80;8.80;;;;;;;5.83;100.00;98173.09;5011521;28;105499;-58
2021/12/17 14:00:54;;;;;;;20.93;17.30;;;;;;;5.41;100.00;98171.88;5017344;28;102069;-58
2021/12/17 14:03:27;;;;;;;11.53;9.17;;;;;;;5.47;100.00;98176.47;5007174;28;103994;-58
2021/12/17 14:06:19;;;;;;;21.07;15.43;;;;;;;5.38;100.00;98188.88;4992158;28;102037;-58
2021/12/17 14:08:46;;;;;;;25.97;18.43;;;;;;;5.23;100.00;98177.41;5009471;28;105256;-58
2021/12/17 14:11:19;;;;;;;18.13;14.13;;;;;;;5.14;100.00;98188.19;5010327;28;105758;-57
2021/12/17 14:13:46;;;;;;;18.47;13.70;;;;;;;5.10;100.00;98187.72;5010903;28;102049;-58
2021/12/17 14:16:29;;;;;;;13.27;10.83;;;;;;;5.21;100.00;98191.78;5010974;28;105237;-58
2021/12/17 14:18:59;;;;;;;15.40;12.17;;;;;;;5.12;100.00;98203.38;5005236;28;105459;-58
2021/12/17 14:21:33;;;;;;;10.57;9.33;;;;;;;5.02;100.00;98195.66;4994475;28;101917;-58
2021/12/17 14:24:00;;;;;;;10.23;8.90;;;;;;;5.05;100.00;98202.41;4997307;28;102732;-58